Time;durP1;ratioP1;P1;durP2;ratioP2;P2;SDS_P1;SDS_P2;PMS_P1;PMS_P2;Temp;Humidity;BMP_temperature;BMP_pressure;BME280_temperature;BME280_humidity;BME280_pressure;Samples;Min_cycle;Max_cycle;Signal;HPM_P1;HPM_P2
2022/12/17 13:06:54;;;;;;;73.20;35.47;;;1.90;91.10;;;;;;5033485;28;19912;-81
2022/12/17 13:09:26;;;;;;;71.73;34.17;;;1.90;91.10;;;;;;5033499;28;20018;-81
2022/12/17 13:12:00;;;;;;;68.33;35.20;;;1.90;91.10;;;;;;5048646;28;20025;-81
2022/12/17 13:14:43;;;;;;;77.30;36.00;;;1.80;91.10;;;;;;5033399;28;20021;-81
2022/12/17 13:17:15;;;;;;;78.03;38.23;;;1.80;91.00;;;;;;5031765;28;20413;-81
2022/12/17 13:19:43;;;;;;;85.10;39.63;;;1.80;91.10;;;;;;5033286;28;20041;-81
2022/12/17 13:22:15;;;;;;;80.50;35.77;;;1.80;91.10;;;;;;5031884;28;20445;-81
2022/12/17 13:24:47;;;;;;;76.73;36.87;;;1.70;91.10;;;;;;5032726;28;20101;-81
2022/12/17 13:27:34;;;;;;;80.83;37.87;;;1.70;91.20;;;;;;5031497;28;20032;-81
2022/12/17 13:30:21;;;;;;;74.83;35.63;;;1.70;91.20;;;;;;5032486;28;20057;-81
2022/12/17 13:33:08;;;;;;;77.33;34.40;;;1.70;91.20;;;;;;5047856;28;20037;-81
2022/12/17 13:36:11;;;;;;;71.97;33.23;;;1.70;91.30;;;;;;5048293;28;20032;-81
2022/12/17 13:39:02;;;;;;;74.60;34.20;;;1.70;91.30;;;;;;5031227;28;20033;-81
2022/12/17 13:41:31;;;;;;;74.53;36.37;;;1.60;91.20;;;;;;5047830;28;20029;-80
2022/12/17 13:44:03;;;;;;;75.13;33.40;;;1.60;91.20;;;;;;5031162;28;20021;-81
2022/12/17 13:46:39;;;;;;;77.67;36.27;;;1.60;91.20;;;;;;5031686;28;20033;-82
2022/12/17 13:49:17;;;;;;;75.53;36.47;;;1.60;91.20;;;;;;5035854;28;20022;-82
2022/12/17 13:51:43;;;;;;;75.57;35.13;;;1.60;91.20;;;;;;5036959;28;20152;-82
2022/12/17 13:54:18;;;;;;;72.30;33.70;;;1.60;91.30;;;;;;5035492;28;20124;-82
2022/12/17 13:56:44;;;;;;;71.70;34.60;;;1.50;91.30;;;;;;5037313;28;20029;-81
2022/12/17 13:59:23;;;;;;;77.40;35.37;;;1.50;91.30;;;;;;5035692;28;20054;-82
2022/12/17 14:01:53;;;;;;;68.37;32.63;;;1.40;91.30;;;;;;5035063;28;20036;-83
2022/12/17 14:04:24;;;;;;;78.60;34.53;;;1.30;91.30;;;;;;5035490;28;20033;-82
2022/12/17 14:06:52;;;;;;;68.33;32.57;;;1.40;91.40;;;;;;5035206;28;20028;-83
2022/12/17 14:09:19;;;;;;;70.37;31.00;;;1.40;91.50;;;;;;5035529;28;20037;-82
2022/12/17 14:14:33;;;;;;;73.60;32.10;;;1.40;91.40;;;;;;5036397;28;20044;-82
2022/12/17 14:16:59;;;;;;;74.07;34.10;;;1.40;91.40;;;;;;5034973;28;20408;-82
2022/12/17 14:19:26;;;;;;;70.43;31.37;;;1.40;91.40;;;;;;5034437;28;20037;-82
2022/12/17 14:21:53;;;;;;;60.73;30.57;;;1.40;91.30;;;;;;5035210;28;20385;-82
2022/12/17 14:24:25;;;;;;;67.03;30.27;;;1.30;91.40;;;;;;5035011;28;20025;-82
2022/12/17 14:26:54;;;;;;;67.73;30.57;;;1.30;91.40;;;;;;5035031;28;20017;-81
2022/12/17 14:29:28;;;;;;;68.63;30.07;;;1.20;91.40;;;;;;5035964;28;20476;-81
2022/12/17 14:31:55;;;;;;;69.53;30.83;;;1.20;91.50;;;;;;5033629;28;20465;-82
2022/12/17 14:34:21;;;;;;;77.93;33.90;;;1.30;91.60;;;;;;5034901;28;20053;-82
2022/12/17 14:36:56;;;;;;;74.47;32.40;;;1.30;91.50;;;;;;5034836;28;20416;-82
2022/12/17 14:39:27;;;;;;;74.60;33.53;;;1.30;91.50;;;;;;5035869;28;20363;-82
2022/12/17 14:44:53;;;;;;;78.37;33.77;;;1.30;91.60;;;;;;5035752;28;20075;-82
2022/12/17 14:47:39;;;;;;;71.90;34.47;;;1.20;91.60;;;;;;5034292;28;20523;-82
2022/12/17 14:50:10;;;;;;;72.47;31.43;;;1.30;91.60;;;;;;5035088;28;20042;-82
2022/12/17 14:53:05;;;;;;;68.57;34.20;;;1.20;91.60;;;;;;5051277;28;20029;-81
2022/12/17 14:55:51;;;;;;;70.43;29.73;;;1.20;91.60;;;;;;5022195;28;20042;-82
2022/12/17 14:58:19;;;;;;;73.97;32.83;;;1.20;91.70;;;;;;5034749;28;20057;-82
2022/12/17 15:00:47;;;;;;;70.73;31.93;;;1.20;91.70;;;;;;5033911;28;20116;-82
2022/12/17 15:03:22;;;;;;;74.00;33.90;;;1.20;91.70;;;;;;5034020;28;20033;-81
2022/12/17 15:05:58;;;;;;;74.50;32.90;;;1.10;91.70;;;;;;5050945;28;20432;-81
2022/12/17 15:08:36;;;;;;;69.77;31.50;;;1.10;91.70;;;;;;5034283;28;20022;-82
2022/12/17 15:11:01;;;;;;;73.90;32.70;;;1.10;91.70;;;;;;5035454;28;20022;-82
2022/12/17 15:13:27;;;;;;;76.50;32.43;;;1.00;91.60;;;;;;5034962;28;20036;-81
2022/12/17 15:15:53;;;;;;;73.87;33.03;;;1.00;91.70;;;;;;5051068;28;20434;-82
2022/12/17 15:18:18;;;;;;;73.43;32.63;;;0.90;91.70;;;;;;5033974;28;20052;-81
2022/12/17 15:20:44;;;;;;;64.53;31.57;;;0.90;91.70;;;;;;5050663;28;20030;-81
2022/12/17 15:23:18;;;;;;;70.50;31.67;;;0.80;91.70;;;;;;5051005;28;20040;-81
2022/12/17 15:25:45;;;;;;;67.40;29.88;;;0.80;91.70;;;;;;5034495;28;20029;-82
2022/12/17 15:28:11;;;;;;;64.77;28.80;;;0.70;91.80;;;;;;5034024;28;20029;-81
2022/12/17 15:30:38;;;;;;;64.70;30.70;;;0.80;91.90;;;;;;5033574;28;20191;-82
2022/12/17 15:33:05;;;;;;;64.90;29.57;;;0.70;91.90;;;;;;5033424;28;20949;-82
2022/12/17 15:35:32;;;;;;;64.00;28.47;;;0.70;91.90;;;;;;5050320;28;20076;-81
2022/12/17 15:37:57;;;;;;;63.97;28.87;;;0.70;91.70;;;;;;5033396;28;20390;-81
2022/12/17 15:40:23;;;;;;;64.40;29.33;;;0.70;91.80;;;;;;5035128;28;20034;-81
2022/12/17 15:45:32;;;;;;;60.17;27.83;;;0.70;91.80;;;;;;5047764;28;20432;-82
2022/12/17 15:47:58;;;;;;;59.07;29.10;;;0.70;91.80;;;;;;5050251;28;20117;-81
2022/12/17 15:50:24;;;;;;;58.20;28.13;;;0.70;91.80;;;;;;5033761;28;20072;-81
2022/12/17 15:52:49;;;;;;;64.10;29.07;;;0.70;91.90;;;;;;5033278;28;20092;-81
2022/12/17 15:55:15;;;;;;;66.93;29.93;;;0.80;91.90;;;;;;5033176;28;20423;-83
2022/12/17 15:57:41;;;;;;;66.97;32.00;;;0.70;92.00;;;;;;5049919;28;20025;-81
2022/12/17 16:00:07;;;;;;;73.37;34.33;;;0.70;91.90;;;;;;5033279;28;20485;-81
2022/12/17 16:02:33;;;;;;;73.63;33.87;;;0.70;92.00;;;;;;5032886;28;20029;-81
2022/12/17 16:04:58;;;;;;;68.97;32.67;;;0.60;92.00;;;;;;5032832;28;20511;-82
2022/12/17 16:07:25;;;;;;;68.80;34.07;;;0.60;91.90;;;;;;5033321;28;20059;-81
2022/12/17 16:09:51;;;;;;;74.37;35.07;;;0.60;92.00;;;;;;5032537;28;20021;-81
2022/12/17 16:12:16;;;;;;;79.03;33.27;;;0.60;92.00;;;;;;5032279;28;20524;-80
2022/12/17 16:14:42;;;;;;;67.63;32.73;;;0.60;92.00;;;;;;5034290;28;20033;-82
2022/12/17 16:17:07;;;;;;;73.13;34.67;;;0.70;92.00;;;;;;5016684;28;20465;-81
2022/12/17 16:19:33;;;;;;;72.77;34.53;;;0.60;92.10;;;;;;5032284;28;20041;-80
2022/12/17 16:21:59;;;;;;;80.13;34.73;;;0.60;92.00;;;;;;5032664;28;20453;-81
2022/12/17 16:24:24;;;;;;;72.53;34.80;;;0.60;92.00;;;;;;5032607;28;20032;-81
2022/12/17 16:26:50;;;;;;;76.53;33.07;;;0.50;92.10;;;;;;5032761;28;20045;-81
2022/12/17 16:29:15;;;;;;;71.07;35.03;;;0.60;92.10;;;;;;5016418;28;20465;-81
2022/12/17 16:31:41;;;;;;;71.10;32.37;;;0.60;92.10;;;;;;5048918;28;20413;-81
2022/12/17 16:34:08;;;;;;;77.10;34.07;;;0.50;92.10;;;;;;5032229;28;20030;-81
2022/12/17 16:36:34;;;;;;;71.00;33.57;;;0.50;92.10;;;;;;5034006;28;20030;-81
2022/12/17 16:39:00;;;;;;;77.50;34.43;;;0.60;92.20;;;;;;5032344;28;20040;-81
2022/12/17 16:41:25;;;;;;;69.50;32.90;;;0.60;92.10;;;;;;5033344;28;20033;-81
2022/12/17 16:43:51;;;;;;;69.50;33.00;;;0.50;92.10;;;;;;5049084;28;20053;-80
2022/12/17 16:46:29;;;;;;;76.83;35.70;;;0.50;92.10;;;;;;5032506;28;20032;-80
2022/12/17 16:48:56;;;;;;;73.47;33.63;;;0.40;92.00;;;;;;5049057;28;20026;-81
2022/12/17 16:51:24;;;;;;;77.70;35.40;;;0.40;92.00;;;;;;5032383;28;20025;-81
2022/12/17 16:53:49;;;;;;;72.77;33.37;;;0.30;92.10;;;;;;5031946;28;20026;-81
2022/12/17 16:56:21;;;;;;;75.00;34.80;;;0.30;92.10;;;;;;5032144;28;20049;-81
2022/12/17 16:58:47;;;;;;;69.17;33.70;;;0.20;92.20;;;;;;5032071;28;20060;-80
2022/12/17 17:01:22;;;;;;;75.83;33.33;;;0.20;92.20;;;;;;5031944;28;20465;-81
2022/12/17 17:03:48;;;;;;;71.60;30.57;;;0.20;92.20;;;;;;5032087;28;20060;-80
2022/12/17 17:06:15;;;;;;;71.57;34.60;;;0.10;92.20;;;;;;5033210;28;20021;-81
2022/12/17 17:08:41;;;;;;;70.47;33.27;;;0.20;92.40;;;;;;5032089;28;20048;-81
2022/12/17 17:11:12;;;;;;;72.97;33.23;;;0.20;92.40;;;;;;5033307;28;20056;-81
2022/12/17 17:13:38;;;;;;;64.60;30.13;;;0.10;92.40;;;;;;5031827;28;20021;-81
2022/12/17 17:16:05;;;;;;;67.63;31.37;;;0.10;92.40;;;;;;5048408;28;20549;-82
2022/12/17 17:18:31;;;;;;;71.77;32.10;;;0.10;92.40;;;;;;5048456;28;20069;-81
2022/12/17 17:21:15;;;;;;;65.83;30.77;;;0.10;92.40;;;;;;5031715;28;20049;-81
2022/12/17 17:23:41;;;;;;;69.10;33.13;;;0.10;92.40;;;;;;5031763;28;20019;-81
2022/12/17 17:26:08;;;;;;;68.77;31.50;;;0.10;92.40;;;;;;5031977;28;20033;-81
2022/12/17 17:28:34;;;;;;;68.63;30.63;;;0.10;92.40;;;;;;5032921;28;20057;-81
2022/12/17 17:31:01;;;;;;;73.47;30.43;;;0.00;92.40;;;;;;5031363;28;20069;-82
2022/12/17 17:33:37;;;;;;;66.17;29.03;;;0.00;92.40;;;;;;5031581;28;20087;-81
2022/12/17 17:36:08;;;;;;;64.60;29.77;;;0.00;92.40;;;;;;5030474;28;20018;-83
2022/12/17 17:38:35;;;;;;;69.70;31.10;;;0.00;92.50;;;;;;5041445;28;20470;-82
2022/12/17 17:41:02;;;;;;;59.37;27.70;;;0.00;92.50;;;;;;5011514;28;20033;-83
2022/12/17 17:43:28;;;;;;;68.07;30.77;;;0.00;92.50;;;;;;5010329;28;20030;-82
2022/12/17 17:45:56;;;;;;;70.37;30.83;;;0.10;92.60;;;;;;4994780;28;20597;-82
2022/12/17 17:48:22;;;;;;;73.47;31.17;;;0.00;92.70;;;;;;5012034;28;20069;-82
2022/12/17 17:51:02;;;;;;;62.20;29.07;;;0.00;92.60;;;;;;5011428;28;20032;-83
2022/12/17 17:53:28;;;;;;;69.50;31.93;;;0.00;92.70;;;;;;5011366;28;20022;-82
2022/12/17 17:56:00;;;;;;;65.33;30.60;;;0.00;92.60;;;;;;4995241;28;20285;-83
2022/12/17 17:58:25;;;;;;;68.90;30.93;;;0.10;92.70;;;;;;5011938;28;20034;-82
2022/12/17 18:00:51;;;;;;;72.17;33.47;;;0.00;92.70;;;;;;5011940;28;20032;-82
2022/12/17 18:03:17;;;;;;;70.10;31.97;;;-0.10;92.60;;;;;;5012609;28;20029;-82
2022/12/17 18:05:42;;;;;;;70.80;31.57;;;-0.20;92.60;;;;;;5011630;28;20034;-83
2022/12/17 18:08:08;;;;;;;68.43;34.07;;;-0.10;92.70;;;;;;5011649;28;20030;-83
2022/12/17 18:10:34;;;;;;;67.37;29.80;;;-0.10;92.70;;;;;;5013308;28;20084;-82
2022/12/17 18:15:43;;;;;;;61.75;29.63;;;-0.20;92.60;;;;;;5013001;28;20044;-83
2022/12/17 18:18:09;;;;;;;62.33;28.47;;;-0.20;92.80;;;;;;4995282;28;20472;-82
2022/12/17 18:20:35;;;;;;;61.87;27.43;;;-0.20;92.70;;;;;;5012756;28;20030;-83
2022/12/17 18:23:00;;;;;;;62.33;28.73;;;-0.10;92.80;;;;;;4995126;28;20389;-82
2022/12/17 18:25:26;;;;;;;62.73;28.97;;;-0.20;92.80;;;;;;4995460;28;20092;-82
2022/12/17 18:27:52;;;;;;;66.77;29.20;;;-0.20;92.80;;;;;;4995368;28;20448;-82
2022/12/17 18:30:18;;;;;;;66.80;31.53;;;-0.20;92.90;;;;;;4995454;28;20026;-81
2022/12/17 18:32:48;;;;;;;64.67;28.10;;;-0.10;93.00;;;;;;5010973;28;20512;-83
2022/12/17 18:35:13;;;;;;;67.30;29.93;;;-0.20;93.00;;;;;;4997622;28;20645;-83
2022/12/17 18:37:39;;;;;;;64.70;28.90;;;-0.10;93.00;;;;;;4998793;28;20030;-83
2022/12/17 18:40:06;;;;;;;59.97;28.97;;;-0.20;92.90;;;;;;5016042;28;20041;-82
2022/12/17 18:45:16;;;;;;;59.00;27.10;;;-0.20;92.90;;;;;;5016324;28;20049;-83
2022/12/17 18:47:43;;;;;;;66.93;28.27;;;-0.10;93.00;;;;;;5014631;28;20462;-82
2022/12/17 18:50:10;;;;;;;69.50;28.80;;;-0.20;92.90;;;;;;4998751;28;20041;-83
2022/12/17 18:52:35;;;;;;;67.97;30.83;;;-0.20;92.90;;;;;;5014698;28;20374;-83
2022/12/17 18:55:01;;;;;;;68.87;31.07;;;-0.30;92.80;;;;;;5016125;28;20040;-83
2022/12/17 18:57:27;;;;;;;64.97;29.60;;;-0.30;92.90;;;;;;5016049;28;20026;-82
2022/12/17 18:59:52;;;;;;;64.13;30.13;;;-0.30;92.90;;;;;;5014504;28;20057;-82
2022/12/17 19:02:18;;;;;;;64.27;28.77;;;-0.30;93.00;;;;;;5013941;28;20037;-82
2022/12/17 19:04:43;;;;;;;65.30;30.97;;;-0.30;93.00;;;;;;5014493;28;20030;-83
2022/12/17 19:07:09;;;;;;;62.60;30.73;;;-0.30;93.00;;;;;;5014895;28;20026;-83
2022/12/17 19:09:37;;;;;;;71.43;32.07;;;-0.40;93.00;;;;;;4997970;28;20335;-83
2022/12/17 19:12:07;;;;;;;65.37;28.17;;;-0.40;93.00;;;;;;5014412;28;20052;-82
2022/12/17 19:14:33;;;;;;;65.90;28.60;;;-0.40;93.00;;;;;;4998160;28;20036;-83
2022/12/17 19:16:59;;;;;;;71.80;31.40;;;-0.40;93.20;;;;;;5014573;28;20277;-83
2022/12/17 19:19:25;;;;;;;65.17;29.27;;;-0.30;93.00;;;;;;5013855;28;20445;-83
2022/12/17 19:21:53;;;;;;;63.57;29.03;;;-0.50;93.00;;;;;;5014641;28;20034;-82
2022/12/17 19:24:20;;;;;;;67.17;29.93;;;-0.50;92.90;;;;;;5015414;28;20485;-83
2022/12/17 19:26:46;;;;;;;64.10;28.60;;;-0.50;93.00;;;;;;5014281;28;20054;-83
2022/12/17 19:29:14;;;;;;;65.40;29.13;;;-0.40;93.20;;;;;;4997821;28;20320;-83
2022/12/17 19:31:40;;;;;;;68.93;30.33;;;-0.50;93.20;;;;;;5013990;28;20041;-83
2022/12/17 19:34:09;;;;;;;72.50;30.30;;;-0.50;93.20;;;;;;5014917;28;20301;-83
2022/12/17 19:36:36;;;;;;;66.97;30.47;;;-0.50;93.20;;;;;;5014038;28;20029;-82
2022/12/17 19:39:05;;;;;;;64.43;29.33;;;-0.50;93.20;;;;;;5013732;28;20034;-83
2022/12/17 19:41:31;;;;;;;62.20;26.90;;;-0.50;93.20;;;;;;5013931;28;20381;-83
2022/12/17 19:44:06;;;;;;;61.17;28.57;;;-0.50;93.20;;;;;;5013849;28;20360;-82
2022/12/17 19:46:34;;;;;;;54.93;26.37;;;-0.50;93.10;;;;;;5013586;28;20323;-83
2022/12/17 19:49:00;;;;;;;65.83;28.13;;;-0.50;93.10;;;;;;5015458;28;20022;-83
2022/12/17 19:51:28;;;;;;;65.27;28.10;;;-0.50;93.20;;;;;;5015314;28;20030;-83
2022/12/17 19:53:54;;;;;;;63.43;27.27;;;-0.60;93.20;;;;;;5013513;28;20025;-83
2022/12/17 19:56:26;;;;;;;62.50;28.10;;;-0.40;93.60;;;;;;4997482;28;20288;-82
2022/12/17 19:58:54;;;;;;;64.83;27.97;;;-0.60;93.30;;;;;;4996889;28;20664;-83
2022/12/17 20:01:30;;;;;;;56.80;25.73;;;-0.60;93.20;;;;;;5013729;28;20280;-83
2022/12/17 20:03:56;;;;;;;58.90;24.57;;;-0.70;93.10;;;;;;5013249;28;20352;-83
2022/12/17 20:06:24;;;;;;;56.60;24.83;;;-0.70;93.20;;;;;;5013429;28;20025;-83
2022/12/17 20:08:51;;;;;;;57.40;24.67;;;-0.70;93.20;;;;;;5014647;28;20299;-83
2022/12/17 20:11:33;;;;;;;51.50;22.83;;;-0.70;93.20;;;;;;4997196;28;20280;-83
2022/12/17 20:14:09;;;;;;;61.10;24.87;;;-0.70;93.10;;;;;;5013178;28;20034;-83
2022/12/17 20:16:44;;;;;;;57.23;24.37;;;-0.80;93.20;;;;;;5013166;28;20022;-83
2022/12/17 20:19:10;;;;;;;;;;;-0.80;93.20;;;;;;5013740;28;20308;-83
2022/12/17 20:21:36;;;;;;;67.17;27.40;;;-0.80;93.40;;;;;;5014251;28;19909;-83
2022/12/17 20:24:02;;;;;;;66.17;26.03;;;-0.90;93.40;;;;;;4996598;28;20334;-83
2022/12/17 20:26:28;;;;;;;57.07;25.00;;;-0.90;93.30;;;;;;4996883;28;20030;-83
2022/12/17 20:28:54;;;;;;;58.47;25.27;;;-0.90;93.30;;;;;;4997071;28;20033;-82
2022/12/17 20:31:19;;;;;;;55.87;23.23;;;-1.00;93.30;;;;;;5013112;28;20119;-83
2022/12/17 20:33:45;;;;;;;65.97;24.47;;;-1.00;93.40;;;;;;4996753;28;20509;-83
2022/12/17 20:36:14;;;;;;;64.43;25.60;;;-1.00;93.40;;;;;;5012780;28;20030;-82
2022/12/17 20:38:41;;;;;;;56.10;24.10;;;-1.00;93.50;;;;;;5013958;28;20030;-83
2022/12/17 20:41:15;;;;;;;57.80;24.60;;;-1.00;93.40;;;;;;5012431;28;20284;-83
2022/12/17 20:43:41;;;;;;;60.00;25.25;;;-1.00;93.60;;;;;;5013850;28;20288;-83
2022/12/17 20:46:10;;;;;;;59.10;24.50;;;-1.00;93.60;;;;;;5021375;28;20025;-83
2022/12/17 20:48:38;;;;;;;60.43;26.33;;;-1.00;93.70;;;;;;5015927;28;20362;-83
2022/12/17 20:51:08;;;;;;;59.70;25.67;;;-1.00;93.80;;;;;;5019513;28;20281;-83
2022/12/17 20:53:35;;;;;;;62.97;27.87;;;-1.00;93.70;;;;;;5018557;28;20283;-83
2022/12/17 20:56:03;;;;;;;66.07;28.30;;;-1.10;93.70;;;;;;5036324;28;20288;-83
2022/12/17 20:58:29;;;;;;;56.90;25.70;;;-1.10;93.80;;;;;;5021483;28;20300;-83
2022/12/17 21:01:09;;;;;;;64.47;25.47;;;-1.10;93.80;;;;;;5031425;28;20338;-83
2022/12/17 21:03:35;;;;;;;63.77;27.87;;;-1.10;93.90;;;;;;5027352;28;20100;-83
2022/12/17 21:06:10;;;;;;;63.00;26.87;;;-1.10;94.10;;;;;;5027729;28;20105;-83
2022/12/17 21:08:36;;;;;;;68.43;27.70;;;-1.10;94.00;;;;;;5026934;28;20767;-83
2022/12/17 21:11:02;;;;;;;66.97;28.13;;;-1.20;94.10;;;;;;5009351;28;20299;-83
2022/12/17 21:13:28;;;;;;;62.67;26.67;;;-1.10;94.10;;;;;;5029213;28;20291;-83
2022/12/17 21:15:59;;;;;;;66.87;26.97;;;-1.10;94.10;;;;;;5034380;28;20296;-83
2022/12/17 21:18:27;;;;;;;62.67;27.90;;;-1.10;94.10;;;;;;5027402;28;20819;-82
2022/12/17 21:20:59;;;;;;;72.97;30.10;;;-1.10;94.20;;;;;;5016050;28;20285;-83
2022/12/17 21:23:26;;;;;;;66.70;28.03;;;-1.10;94.20;;;;;;5032905;28;20308;-82
2022/12/17 21:26:07;;;;;;;67.80;26.97;;;-1.10;94.10;;;;;;5014081;28;20611;-83
2022/12/17 21:28:34;;;;;;;60.27;24.50;;;-1.10;94.20;;;;;;5032124;28;20315;-82
2022/12/17 21:31:00;;;;;;;61.03;25.63;;;-1.10;94.20;;;;;;5014590;28;20276;-83
2022/12/17 21:33:26;;;;;;;64.93;25.67;;;-1.10;94.20;;;;;;5030163;28;20793;-82
2022/12/17 21:36:00;;;;;;;62.67;25.20;;;-1.10;94.20;;;;;;5035843;28;20064;-83
2022/12/17 21:38:26;;;;;;;59.78;24.88;;;-1.10;94.20;;;;;;5034151;28;20100;-83
2022/12/17 21:40:52;;;;;;;70.43;27.00;;;-1.10;94.20;;;;;;5019366;28;20441;-83
2022/12/17 21:43:17;;;;;;;62.20;25.47;;;-1.10;94.20;;;;;;5031393;28;20814;-82
2022/12/17 21:45:43;;;;;;;69.03;28.57;;;-1.10;94.20;;;;;;5030295;28;20071;-83
2022/12/17 21:48:09;;;;;;;67.17;28.13;;;-1.00;94.20;;;;;;5018373;28;20378;-82
2022/12/17 21:50:43;;;;;;;62.63;27.03;;;-1.10;94.30;;;;;;5042267;28;20473;-83
2022/12/17 21:53:10;;;;;;;65.05;25.85;;;-1.00;94.30;;;;;;5027072;28;20280;-82
2022/12/17 21:55:37;;;;;;;58.53;25.70;;;-1.00;94.20;;;;;;5018876;28;20022;-82
2022/12/17 21:58:03;;;;;;;56.50;23.67;;;-0.90;94.20;;;;;;5017303;28;20375;-82
2022/12/17 22:04:02;;;;;;;61.80;25.23;;;-1.00;94.10;;;;;;5027940;28;20037;-82
2022/12/17 22:06:30;;;;;;;65.50;27.07;;;-1.10;94.00;;;;;;5025954;28;20284;-82
2022/12/17 22:08:57;;;;;;;70.67;29.07;;;-1.10;94.00;;;;;;5027729;28;20273;-83
2022/12/17 22:11:24;;;;;;;63.77;26.17;;;-1.10;94.00;;;;;;5025253;28;20044;-82
2022/12/17 22:14:08;;;;;;;54.90;25.17;;;-1.10;94.00;;;;;;5027875;28;20363;-83
2022/12/17 22:16:45;;;;;;;57.72;24.80;;;-1.20;93.90;;;;;;5027381;28;20822;-81
2022/12/17 22:19:16;;;;;;;57.53;24.47;;;-1.20;94.00;;;;;;5028101;28;20132;-82
2022/12/17 22:21:43;;;;;;;60.77;25.03;;;-1.20;94.00;;;;;;5013340;28;20283;-83
2022/12/17 22:24:18;;;;;;;60.63;24.97;;;-1.20;94.00;;;;;;5027740;28;20273;-81
2022/12/17 22:26:44;;;;;;;69.23;27.67;;;-1.30;94.00;;;;;;5027785;28;20288;-82
2022/12/17 22:29:10;;;;;;;69.33;26.60;;;-1.10;94.00;;;;;;5028192;28;20280;-83
2022/12/17 22:34:21;;;;;;;59.90;24.70;;;-1.10;93.90;;;;;;5026108;28;20296;-83
2022/12/17 22:36:46;;;;;;;64.53;26.70;;;-1.30;93.80;;;;;;5028362;28;20402;-82
2022/12/17 22:39:14;;;;;;;61.63;27.73;;;-1.40;93.80;;;;;;5011556;28;20045;-83
2022/12/17 22:44:25;;;;;;;62.73;27.80;;;-1.40;93.80;;;;;;5012868;28;20280;-82
2022/12/17 22:46:51;;;;;;;66.17;27.03;;;-1.40;93.80;;;;;;5028327;28;20280;-82
2022/12/17 22:49:18;;;;;;;64.27;27.00;;;-1.50;93.60;;;;;;5027673;28;20386;-82
2022/12/17 22:51:44;;;;;;;63.23;28.27;;;-1.50;93.60;;;;;;5012861;28;20033;-82
2022/12/17 22:54:11;;;;;;;60.87;25.80;;;-1.60;93.50;;;;;;5010928;28;20293;-82
2022/12/17 22:56:39;;;;;;;66.50;26.43;;;-1.60;93.50;;;;;;5014439;28;20276;-82
2022/12/17 22:59:05;;;;;;;63.70;26.57;;;-1.70;93.50;;;;;;5014605;28;20392;-82
2022/12/17 23:01:31;;;;;;;70.53;28.23;;;-1.70;93.50;;;;;;5030860;28;20356;-81
2022/12/17 23:03:59;;;;;;;67.07;26.50;;;-1.70;93.50;;;;;;5030880;28;20280;-82
2022/12/17 23:06:25;;;;;;;68.07;26.47;;;-1.70;93.50;;;;;;5030787;28;20348;-82
2022/12/17 23:08:51;;;;;;;64.73;26.80;;;-1.80;93.40;;;;;;5014570;28;20335;-82
2022/12/17 23:11:25;;;;;;;66.03;25.50;;;-1.90;93.30;;;;;;5014436;28;20280;-82
2022/12/17 23:13:52;;;;;;;63.45;24.25;;;-1.90;93.30;;;;;;5030989;28;20030;-82
2022/12/17 23:16:18;;;;;;;55.20;24.70;;;-2.00;93.20;;;;;;5030565;28;20026;-82
2022/12/17 23:18:46;;;;;;;65.63;26.87;;;-2.10;93.30;;;;;;5030594;28;20301;-82
2022/12/17 23:21:14;;;;;;;66.47;27.17;;;-2.10;93.40;;;;;;5030037;28;20277;-83
2022/12/17 23:23:40;;;;;;;68.27;26.73;;;-2.10;93.40;;;;;;5015268;28;20285;-82
2022/12/17 23:26:12;;;;;;;61.00;25.37;;;-2.10;93.40;;;;;;5030697;28;20335;-82
2022/12/17 23:28:38;;;;;;;63.47;25.57;;;-2.20;93.30;;;;;;5030236;28;20058;-82
2022/12/17 23:31:06;;;;;;;61.20;23.83;;;-2.20;93.30;;;;;;5013937;28;20312;-82
2022/12/17 23:33:32;;;;;;;60.73;23.93;;;-2.30;93.20;;;;;;5029987;28;20474;-82
2022/12/17 23:36:04;;;;;;;62.27;24.27;;;-2.30;93.20;;;;;;5013911;28;20352;-82
2022/12/17 23:38:30;;;;;;;62.37;23.63;;;-2.40;93.20;;;;;;5013959;28;20044;-82
2022/12/17 23:41:05;;;;;;;64.00;24.23;;;-2.40;93.20;;;;;;5013894;28;20585;-82
2022/12/17 23:43:30;;;;;;;60.60;23.83;;;-2.50;93.30;;;;;;5030483;28;20516;-82
2022/12/17 23:45:56;;;;;;;65.53;24.13;;;-2.50;93.30;;;;;;5013786;28;20285;-82
2022/12/17 23:48:21;;;;;;;60.60;25.43;;;-2.50;93.40;;;;;;5030251;28;20458;-82
2022/12/17 23:50:47;;;;;;;62.83;26.40;;;-2.50;93.40;;;;;;5014708;28;20474;-82
2022/12/17 23:53:13;;;;;;;57.30;23.37;;;-2.60;93.40;;;;;;5014078;28;20107;-79
2022/12/17 23:55:38;;;;;;;61.20;24.53;;;-2.60;93.40;;;;;;4997264;28;20037;-80
2022/12/17 23:58:04;;;;;;;62.57;23.57;;;-2.60;93.40;;;;;;5030117;28;20541;-80
